Time;durP1;ratioP1;P1;durP2;ratioP2;P2;SDS_P1;SDS_P2;PMS_P1;PMS_P2;Temp;Humidity;BMP_temperature;BMP_pressure;BME280_temperature;BME280_humidity;BME280_pressure;Samples;Min_cycle;Max_cycle;Signal;HPM_P1;HPM_P2
2021/09/30 00:01:26;;;;;;;3.97;2.00;;;11.50;99.90;;;;;;6107908;23;20174;-83
2021/09/30 00:03:53;;;;;;;5.10;3.25;;;11.50;99.90;;;;;;6108617;23;20159;-83
2021/09/30 00:06:21;;;;;;;5.18;1.92;;;11.50;99.90;;;;;;6113579;23;20185;-83
2021/09/30 00:08:48;;;;;;;8.07;2.20;;;11.60;99.90;;;;;;6108894;23;20256;-83
2021/09/30 00:11:21;;;;;;;5.03;2.10;;;11.50;99.90;;;;;;6107571;23;20237;-82
2021/09/30 00:13:51;;;;;;;6.43;2.33;;;11.50;99.90;;;;;;6104767;23;20666;-82
2021/09/30 00:32:53;;;;;;;6.35;1.70;;;11.50;99.90;;;;;;6107335;23;20210;-82
2021/09/30 00:35:30;;;;;;;5.68;1.88;;;11.50;99.90;;;;;;6106214;23;20186;-83
2021/09/30 00:41:06;;;;;;;3.90;1.40;;;11.50;99.90;;;;;;6106118;23;20216;-82
2021/09/30 00:46:22;;;;;;;7.97;1.70;;;11.50;99.90;;;;;;6104510;23;20165;-82
2021/09/30 00:51:43;;;;;;;6.40;1.95;;;11.60;99.90;;;;;;6104237;23;20522;-82
2021/09/30 02:19:21;;;;;;;4.63;1.85;;;10.80;99.90;;;;;;6112735;23;20223;-82
2021/09/30 02:58:32;;;;;;;8.10;2.25;;;10.50;99.90;;;;;;6024375;23;20241;-83
2021/09/30 03:01:04;;;;;;;5.38;2.10;;;10.50;99.90;;;;;;6105178;23;20201;-83
2021/09/30 03:03:34;;;;;;;7.55;2.55;;;10.50;99.90;;;;;;6106150;23;20163;-83
2021/09/30 03:06:01;;;;;;;3.63;1.85;;;10.40;99.90;;;;;;6106423;23;20241;-84
2021/09/30 03:08:35;;;;;;;4.47;1.90;;;10.40;99.90;;;;;;6106665;23;20228;-83
2021/09/30 03:11:04;;;;;;;3.17;1.73;;;10.40;99.90;;;;;;6106332;23;20189;-85
2021/09/30 03:13:34;;;;;;;4.13;2.17;;;10.40;99.90;;;;;;6106878;23;20198;-83
2021/09/30 03:16:06;;;;;;;3.67;2.05;;;10.40;99.90;;;;;;6105270;23;20176;-84
2021/09/30 03:18:49;;;;;;;4.47;1.50;;;10.40;99.90;;;;;;6104395;23;20819;-84
2021/09/30 03:24:04;;;;;;;8.23;1.70;;;10.30;99.90;;;;;;6108093;23;20187;-83
2021/09/30 03:26:33;;;;;;;6.53;2.00;;;10.30;99.90;;;;;;6113735;23;20489;-83
2021/09/30 03:29:02;;;;;;;7.90;2.90;;;10.30;99.90;;;;;;6123621;23;20230;-83
2021/09/30 03:31:30;;;;;;;4.78;1.98;;;10.30;99.90;;;;;;6124292;23;20191;-83
2021/09/30 03:33:58;;;;;;;3.83;1.60;;;10.30;99.90;;;;;;6123939;23;20194;-84
2021/09/30 03:36:25;;;;;;;9.70;2.30;;;10.40;99.90;;;;;;6123672;23;20218;-83
2021/09/30 03:38:52;;;;;;;6.93;2.33;;;10.40;99.90;;;;;;6121363;23;20250;-84
2021/09/30 03:41:21;;;;;;;2.30;1.90;;;10.40;99.90;;;;;;6122563;23;20214;-84
2021/09/30 03:43:48;;;;;;;8.18;1.77;;;10.30;99.90;;;;;;6117354;23;20544;-84
2021/09/30 03:46:15;;;;;;;4.97;1.75;;;10.30;99.90;;;;;;6111242;23;20182;-83
2021/09/30 03:48:51;;;;;;;6.20;2.10;;;10.20;99.90;;;;;;6109368;23;20194;-83
2021/09/30 03:51:22;;;;;;;8.07;2.28;;;10.30;99.90;;;;;;6107653;23;20217;-83
2021/09/30 03:53:56;;;;;;;4.32;1.33;;;10.20;99.90;;;;;;6107211;23;20253;-83
2021/09/30 03:56:47;;;;;;;10.57;2.92;;;10.20;99.90;;;;;;6108208;23;20234;-83
2021/09/30 03:59:19;;;;;;;5.93;2.05;;;10.20;99.90;;;;;;6106557;23;20563;-83
2021/09/30 04:01:52;;;;;;;6.35;1.80;;;10.20;99.90;;;;;;6110451;23;20213;-84
2021/09/30 04:04:19;;;;;;;6.47;1.80;;;10.10;99.90;;;;;;6117342;23;20222;-83
2021/09/30 04:06:46;;;;;;;3.72;2.80;;;10.10;99.90;;;;;;6113267;23;20186;-84
2021/09/30 04:09:14;;;;;;;3.22;1.48;;;10.10;99.90;;;;;;6103808;23;20243;-83
2021/09/30 04:11:43;;;;;;;6.80;1.50;;;10.10;99.90;;;;;;6103403;23;20170;-83
2021/09/30 04:14:10;;;;;;;4.43;1.75;;;10.10;99.90;;;;;;6102028;23;20717;-83
2021/09/30 04:16:38;;;;;;;3.50;1.40;;;10.10;99.90;;;;;;6103245;23;20182;-82
2021/09/30 04:19:05;;;;;;;4.43;1.63;;;10.10;99.90;;;;;;6104706;23;20205;-82
2021/09/30 04:21:32;;;;;;;4.55;1.50;;;10.10;99.90;;;;;;6104098;23;20179;-83
2021/09/30 04:23:59;;;;;;;5.20;1.85;;;10.10;99.90;;;;;;6103842;23;20174;-83
2021/09/30 04:26:26;;;;;;;4.65;1.60;;;10.10;99.90;;;;;;6108455;23;20184;-84
2021/09/30 04:28:55;;;;;;;6.60;1.38;;;10.10;99.90;;;;;;6117534;23;20277;-83
2021/09/30 04:31:23;;;;;;;6.35;2.88;;;10.10;99.90;;;;;;6117560;23;20182;-83
2021/09/30 04:33:52;;;;;;;6.55;1.65;;;10.10;99.90;;;;;;6117821;23;20705;-83
2021/09/30 04:36:21;;;;;;;11.68;1.17;;;10.10;99.90;;;;;;6114528;23;20610;-83
2021/09/30 04:38:49;;;;;;;3.22;1.35;;;10.10;99.90;;;;;;6116049;23;20203;-83
2021/09/30 04:41:17;;;;;;;4.80;2.00;;;10.10;99.90;;;;;;6117534;23;20741;-83
2021/09/30 04:43:45;;;;;;;3.90;1.80;;;10.10;99.90;;;;;;6116613;23;20234;-83
2021/09/30 04:46:15;;;;;;;2.38;1.45;;;10.10;99.90;;;;;;6116244;23;20501;-84
2021/09/30 04:48:43;;;;;;;2.75;1.33;;;10.10;99.90;;;;;;6117050;23;20202;-84
2021/09/30 04:51:11;;;;;;;9.13;2.05;;;10.10;99.90;;;;;;6118119;23;20184;-85
2021/09/30 04:53:38;;;;;;;4.25;1.45;;;10.10;99.90;;;;;;6118467;23;20186;-85
2021/09/30 04:56:06;;;;;;;4.72;1.35;;;10.10;99.90;;;;;;6118526;23;20229;-86
2021/09/30 04:58:34;;;;;;;3.35;1.30;;;10.10;99.90;;;;;;6118684;23;20246;-86
2021/09/30 05:01:01;;;;;;;4.85;1.98;;;10.10;99.90;;;;;;6119998;23;20166;-86
2021/09/30 05:03:30;;;;;;;4.15;1.40;;;10.10;99.90;;;;;;6119098;23;20201;-85
2021/09/30 05:05:57;;;;;;;5.70;1.10;;;10.10;99.90;;;;;;6115385;23;20167;-84
2021/09/30 05:08:25;;;;;;;3.95;1.23;;;10.10;99.90;;;;;;6116271;23;20266;-84
2021/09/30 05:10:52;;;;;;;5.80;2.00;;;10.10;99.90;;;;;;6110275;23;20182;-84
2021/09/30 05:13:22;;;;;;;4.88;1.63;;;10.10;99.90;;;;;;6108924;23;20614;-84
2021/09/30 05:15:49;;;;;;;4.53;1.77;;;10.10;99.90;;;;;;6109106;23;20170;-82
2021/09/30 05:18:17;;;;;;;5.00;2.08;;;10.10;99.90;;;;;;6111327;23;20209;-84
2021/09/30 05:20:45;;;;;;;4.85;1.70;;;10.20;99.90;;;;;;6108845;23;20189;-85
2021/09/30 05:23:12;;;;;;;6.25;2.00;;;10.20;99.90;;;;;;6107998;23;20166;-84
2021/09/30 05:25:39;;;;;;;3.42;1.50;;;10.20;99.90;;;;;;6107635;23;20182;-83
2021/09/30 05:28:07;;;;;;;4.93;1.88;;;10.20;99.90;;;;;;6107459;23;20579;-83
2021/09/30 05:30:34;;;;;;;7.80;3.15;;;10.20;99.90;;;;;;6107036;23;20237;-84
2021/09/30 05:33:01;;;;;;;2.92;1.70;;;10.20;99.90;;;;;;6105178;23;20206;-85
2021/09/30 05:35:30;;;;;;;6.85;2.13;;;10.20;99.90;;;;;;6106829;23;20732;-85
2021/09/30 05:38:02;;;;;;;2.83;1.80;;;10.30;99.90;;;;;;6106211;23;20194;-86
2021/09/30 05:40:30;;;;;;;3.53;1.60;;;10.20;99.90;;;;;;6113219;23;20300;-86
2021/09/30 05:42:58;;;;;;;5.60;1.70;;;10.30;99.90;;;;;;6110254;23;20188;-85
2021/09/30 05:45:26;;;;;;;3.45;1.70;;;10.20;99.90;;;;;;6109867;23;20185;-87
2021/09/30 05:47:53;;;;;;;6.70;1.50;;;10.20;99.90;;;;;;6110062;23;20198;-85
2021/09/30 05:50:20;;;;;;;3.42;1.30;;;10.20;99.90;;;;;;6113283;23;20175;-85
2021/09/30 05:52:47;;;;;;;7.45;2.28;;;10.20;99.90;;;;;;6112919;23;20182;-85
2021/09/30 05:55:19;;;;;;;2.60;1.42;;;10.20;99.90;;;;;;6112094;23;20198;-84
2021/09/30 05:57:46;;;;;;;7.03;2.03;;;10.20;99.90;;;;;;6121991;23;20192;-84
2021/09/30 06:00:20;;;;;;;5.70;1.92;;;10.20;99.90;;;;;;6121866;23;20230;-84
2021/09/30 06:11:14;;;;;;;4.97;2.70;;;10.40;99.90;;;;;;6150584;23;20190;-84
2021/09/30 06:13:46;;;;;;;5.93;2.20;;;10.50;99.90;;;;;;6141868;23;20224;-84
2021/09/30 06:16:16;;;;;;;8.07;2.45;;;10.50;99.90;;;;;;6139627;23;20167;-85
2021/09/30 06:18:43;;;;;;;6.57;2.30;;;10.50;99.90;;;;;;6140194;23;20213;-85
2021/09/30 06:21:12;;;;;;;6.28;2.25;;;10.50;99.90;;;;;;6138122;23;20650;-84
2021/09/30 06:23:39;;;;;;;3.85;2.08;;;10.60;99.90;;;;;;6136857;23;20668;-86
2021/09/30 06:26:08;;;;;;;4.82;1.45;;;10.70;99.90;;;;;;6135917;23;20195;-85
2021/09/30 06:28:36;;;;;;;4.53;2.03;;;10.90;99.90;;;;;;6136561;23;20387;-86
2021/09/30 06:31:03;;;;;;;3.17;1.95;;;10.90;99.90;;;;;;6134118;23;20243;-87
2021/09/30 06:33:31;;;;;;;3.03;1.50;;;11.20;99.90;;;;;;6134195;23;20233;-84
2021/09/30 06:35:58;;;;;;;4.65;1.70;;;11.80;99.90;;;;;;6133655;23;20226;-87
2021/09/30 06:38:25;;;;;;;5.75;1.85;;;12.60;99.90;;;;;;6134537;23;20204;-86
2021/09/30 06:40:52;;;;;;;6.32;1.60;;;13.00;99.90;;;;;;6133220;23;20556;-88
2021/09/30 06:43:36;;;;;;;5.88;1.60;;;13.40;99.90;;;;;;6135336;23;20237;-89
2021/09/30 06:46:03;;;;;;;5.65;1.85;;;13.90;99.90;;;;;;6142339;23;20181;-85
2021/09/30 06:48:30;;;;;;;6.47;1.88;;;14.60;99.90;;;;;;6143882;23;20258;-85
2021/09/30 06:50:58;;;;;;;4.53;1.52;;;14.90;99.90;;;;;;6135322;23;20491;-86
2021/09/30 06:53:25;;;;;;;4.07;1.60;;;14.90;99.90;;;;;;6136333;23;20656;-85
2021/09/30 06:55:57;;;;;;;5.95;1.98;;;14.90;99.90;;;;;;6134792;23;20202;-87
2021/09/30 06:58:25;;;;;;;3.25;1.60;;;15.10;99.90;;;;;;6135578;23;20264;-85
2021/09/30 07:00:56;;;;;;;5.43;2.03;;;15.20;99.90;;;;;;6138722;23;20218;-86
2021/09/30 07:03:23;;;;;;;3.25;1.45;;;15.70;99.90;;;;;;6136455;23;20518;-85
2021/09/30 07:05:51;;;;;;;4.60;1.65;;;16.20;99.90;;;;;;6136324;23;20180;-85
2021/09/30 07:08:19;;;;;;;5.20;1.80;;;16.20;99.90;;;;;;6109898;23;20215;-85
2021/09/30 07:10:46;;;;;;;2.80;2.20;;;16.90;99.90;;;;;;6107963;23;20429;-85
2021/09/30 07:13:14;;;;;;;4.30;1.73;;;17.10;99.90;;;;;;6107115;23;20402;-85
2021/09/30 07:15:41;;;;;;;2.17;1.40;;;17.50;99.90;;;;;;6108644;23;20452;-85
2021/09/30 07:18:18;;;;;;;4.23;1.70;;;17.60;99.90;;;;;;6116051;23;20414;-86
2021/09/30 07:20:45;;;;;;;3.63;2.00;;;17.80;99.90;;;;;;6114814;23;20519;-86
2021/09/30 07:23:12;;;;;;;3.93;1.50;;;17.80;99.30;;;;;;6115257;23;20422;-87
2021/09/30 07:25:39;;;;;;;4.30;1.50;;;18.10;99.70;;;;;;6115713;23;20475;-86
2021/09/30 07:28:07;;;;;;;3.03;1.50;;;18.20;98.80;;;;;;6114940;23;20446;-86
2021/09/30 07:30:34;;;;;;;4.53;1.93;;;17.60;99.20;;;;;;6116722;23;20473;-86
2021/09/30 07:33:02;;;;;;;2.47;1.70;;;16.90;99.90;;;;;;6119065;23;20429;-86
2021/09/30 07:35:30;;;;;;;4.60;2.33;;;17.80;99.90;;;;;;6115084;23;20497;-87
2021/09/30 07:37:57;;;;;;;4.03;1.60;;;18.30;99.20;;;;;;6116525;23;20438;-86
2021/09/30 07:40:25;;;;;;;6.30;2.10;;;18.00;99.20;;;;;;6117346;23;20411;-86
2021/09/30 07:42:58;;;;;;;4.07;2.17;;;18.20;98.70;;;;;;6115536;23;20398;-86
2021/09/30 07:45:26;;;;;;;3.50;1.60;;;18.40;98.50;;;;;;6114756;23;20391;-86
2021/09/30 07:47:53;;;;;;;5.83;2.07;;;18.80;97.60;;;;;;6120274;23;20425;-86
2021/09/30 07:50:20;;;;;;;4.00;1.70;;;19.00;96.30;;;;;;6124550;23;20411;-87
2021/09/30 07:52:50;;;;;;;3.80;2.40;;;19.30;96.60;;;;;;6123854;23;20477;-86
2021/09/30 07:55:17;;;;;;;4.73;2.07;;;19.30;95.90;;;;;;6124118;23;20458;-86
2021/09/30 07:57:44;;;;;;;4.60;1.97;;;19.40;95.90;;;;;;6124472;23;20466;-86
2021/09/30 08:00:12;;;;;;;10.30;2.57;;;19.20;95.90;;;;;;6123704;23;20418;-86
2021/09/30 08:02:39;;;;;;;6.77;2.13;;;19.80;96.00;;;;;;6124200;23;20417;-85
2021/09/30 08:05:07;;;;;;;5.07;2.87;;;20.10;94.90;;;;;;6124010;23;20498;-86
2021/09/30 08:07:34;;;;;;;7.40;2.20;;;19.80;94.80;;;;;;6122483;23;20440;-83
2021/09/30 08:10:05;;;;;;;2.53;1.40;;;19.60;94.90;;;;;;6114581;23;20441;-85
2021/09/30 08:12:32;;;;;;;2.80;1.80;;;19.70;94.80;;;;;;6110132;23;20419;-84
2021/09/30 08:14:59;;;;;;;5.00;1.97;;;19.50;94.80;;;;;;6110731;23;20476;-84
2021/09/30 08:17:26;;;;;;;8.20;2.30;;;19.60;95.30;;;;;;6108679;23;20437;-85
2021/09/30 08:19:54;;;;;;;5.43;2.43;;;20.40;94.50;;;;;;6109611;23;20409;-85
2021/09/30 08:22:21;;;;;;;5.33;2.20;;;20.20;94.50;;;;;;6108311;23;20416;-86
2021/09/30 08:24:48;;;;;;;6.27;1.30;;;20.30;94.50;;;;;;6108147;23;20421;-85
2021/09/30 08:27:17;;;;;;;5.37;1.83;;;20.30;94.00;;;;;;6108974;23;20431;-85
2021/09/30 08:29:44;;;;;;;4.10;1.80;;;19.80;94.50;;;;;;6109924;23;20412;-86
2021/09/30 08:32:11;;;;;;;4.83;2.17;;;19.60;95.50;;;;;;6107558;23;20410;-86
2021/09/30 08:34:38;;;;;;;7.83;2.30;;;19.60;94.60;;;;;;6106071;23;20430;-86
2021/09/30 08:37:05;;;;;;;5.63;2.33;;;19.70;95.00;;;;;;6106718;23;20484;-86
2021/09/30 08:39:32;;;;;;;8.37;1.90;;;20.20;94.80;;;;;;6108295;23;20465;-85
2021/09/30 08:42:03;;;;;;;6.40;2.53;;;19.60;94.20;;;;;;6107692;23;20428;-85
2021/09/30 08:44:34;;;;;;;9.40;2.23;;;19.70;94.90;;;;;;6106623;23;20398;-85
2021/09/30 08:47:01;;;;;;;5.90;1.53;;;20.10;94.50;;;;;;6116031;23;20401;-86
2021/09/30 08:49:28;;;;;;;4.40;1.60;;;19.80;94.10;;;;;;6118438;23;20405;-86
2021/09/30 08:51:56;;;;;;;5.70;2.00;;;20.70;94.50;;;;;;6119011;23;20401;-87
2021/09/30 08:54:23;;;;;;;4.03;1.60;;;20.90;92.80;;;;;;6118346;23;20394;-86
2021/09/30 08:56:52;;;;;;;7.63;2.67;;;21.10;92.50;;;;;;6110616;23;20433;-87
2021/09/30 08:59:25;;;;;;;10.37;2.10;;;21.00;92.30;;;;;;6110847;23;20470;-86
2021/09/30 09:02:08;;;;;;;3.63;1.70;;;20.80;92.50;;;;;;6111955;23;20436;-85
2021/09/30 09:04:35;;;;;;;6.67;2.30;;;20.80;92.10;;;;;;6109857;23;20391;-85
2021/09/30 09:07:07;;;;;;;7.57;1.77;;;21.20;92.40;;;;;;6109834;23;20410;-85
2021/09/30 09:09:34;;;;;;;2.40;1.60;;;21.30;92.00;;;;;;6110023;23;20423;-85
2021/09/30 09:12:08;;;;;;;7.07;1.80;;;21.40;91.10;;;;;;6108527;23;20769;-86
2021/09/30 09:14:38;;;;;;;6.00;2.13;;;21.60;91.00;;;;;;6106264;23;20442;-85
2021/09/30 09:17:08;;;;;;;7.40;2.00;;;21.00;91.40;;;;;;6107658;23;20440;-86
2021/09/30 09:19:39;;;;;;;5.63;1.67;;;20.60;91.80;;;;;;6107622;23;20414;-85
2021/09/30 09:22:14;;;;;;;9.70;2.10;;;20.70;92.50;;;;;;6110488;23;20462;-86
2021/09/30 09:25:05;;;;;;;12.47;2.73;;;20.60;92.00;;;;;;6119603;23;20433;-85
2021/09/30 09:27:51;;;;;;;13.77;2.53;;;21.40;92.00;;;;;;6119470;23;20430;-86
2021/09/30 09:30:30;;;;;;;3.47;1.73;;;21.50;91.20;;;;;;6116468;23;20418;-85
2021/09/30 09:33:12;;;;;;;5.27;2.27;;;20.60;91.10;;;;;;6112523;23;20424;-86
2021/09/30 09:35:55;;;;;;;5.83;1.87;;;20.80;91.60;;;;;;6107382;23;20521;-86
2021/09/30 09:38:32;;;;;;;4.87;1.43;;;21.00;92.00;;;;;;6117560;23;20445;-87
2021/09/30 09:41:03;;;;;;;7.90;1.70;;;20.60;92.00;;;;;;6123816;23;20397;-86
2021/09/30 09:43:41;;;;;;;4.80;1.67;;;21.10;92.10;;;;;;6123216;23;20422;-86
2021/09/30 09:46:10;;;;;;;3.17;1.83;;;21.20;91.10;;;;;;6123457;23;20387;-86
2021/09/30 09:48:40;;;;;;;5.90;1.93;;;21.10;91.80;;;;;;6123018;23;20465;-86
2021/09/30 09:51:12;;;;;;;7.83;2.27;;;20.40;91.10;;;;;;6123116;23;20390;-85
2021/09/30 09:53:40;;;;;;;5.57;2.13;;;20.80;91.80;;;;;;6123028;23;20413;-86
2021/09/30 09:56:16;;;;;;;7.00;1.27;;;20.50;91.20;;;;;;6123880;23;20466;-86
2021/09/30 09:58:50;;;;;;;6.33;1.57;;;21.00;91.20;;;;;;6123616;23;20425;-86
2021/09/30 10:01:22;;;;;;;3.90;1.80;;;21.50;91.10;;;;;;6123831;23;20378;-86
2021/09/30 10:03:59;;;;;;;5.83;2.73;;;21.80;90.40;;;;;;6120350;23;20442;-86
2021/09/30 10:06:28;;;;;;;6.20;2.07;;;20.90;90.00;;;;;;6111537;23;20413;-86
2021/09/30 10:08:56;;;;;;;5.17;2.93;;;20.90;90.50;;;;;;6109850;23;20534;-85
2021/09/30 10:11:25;;;;;;;5.60;1.63;;;20.90;90.60;;;;;;6108458;23;20413;-85
2021/09/30 10:13:53;;;;;;;6.10;2.50;;;21.00;90.60;;;;;;6109699;23;20445;-85
2021/09/30 10:16:28;;;;;;;5.00;1.43;;;21.70;89.90;;;;;;6108535;23;20438;-85
2021/09/30 10:18:58;;;;;;;5.43;1.87;;;21.40;88.80;;;;;;6109215;23;20464;-86
2021/09/30 10:21:27;;;;;;;8.20;1.50;;;20.70;90.00;;;;;;6108781;23;20407;-86
2021/09/30 10:23:58;;;;;;;7.20;1.90;;;20.00;90.30;;;;;;6110368;23;20510;-87
2021/09/30 10:26:34;;;;;;;3.77;1.60;;;20.20;90.60;;;;;;6115434;23;20453;-85
2021/09/30 10:29:02;;;;;;;8.30;2.50;;;19.60;91.30;;;;;;6110899;23;20489;-87
2021/09/30 10:31:32;;;;;;;4.07;1.40;;;19.20;91.80;;;;;;6111568;23;20421;-84
2021/09/30 10:34:03;;;;;;;6.23;2.07;;;18.80;92.60;;;;;;6111288;23;20441;-85
2021/09/30 10:36:44;;;;;;;8.07;2.87;;;18.40;93.80;;;;;;6111805;23;20450;-85
2021/09/30 10:39:17;;;;;;;8.37;1.97;;;18.20;94.20;;;;;;6113968;23;20411;-85
2021/09/30 10:41:45;;;;;;;4.43;1.60;;;18.00;94.10;;;;;;6112567;23;20424;-85
2021/09/30 10:44:16;;;;;;;5.87;2.20;;;18.10;94.60;;;;;;6112147;23;20573;-85
2021/09/30 10:46:49;;;;;;;5.87;2.00;;;17.90;95.10;;;;;;6111499;23;20402;-85
2021/09/30 10:49:42;;;;;;;5.90;2.67;;;17.90;94.70;;;;;;6111759;23;20412;-85
2021/09/30 10:52:31;;;;;;;10.70;2.13;;;18.30;95.10;;;;;;6115442;23;20411;-85
2021/09/30 10:55:27;;;;;;;10.50;2.13;;;18.30;94.10;;;;;;6121682;23;20453;-85
2021/09/30 10:58:00;;;;;;;5.50;1.77;;;18.60;94.60;;;;;;6122233;23;20437;-86
2021/09/30 11:00:48;;;;;;;5.20;1.70;;;18.80;93.40;;;;;;6121964;23;20417;-87
2021/09/30 11:03:26;;;;;;;5.87;2.00;;;18.60;93.10;;;;;;6122554;23;20433;-85
2021/09/30 11:06:23;;;;;;;4.93;1.50;;;18.60;93.20;;;;;;6122448;23;20391;-85
2021/09/30 11:09:14;;;;;;;5.20;1.77;;;18.20;93.00;;;;;;6121293;23;20414;-85
2021/09/30 11:11:42;;;;;;;4.47;1.77;;;18.00;93.40;;;;;;6120399;23;20416;-86
2021/09/30 11:14:21;;;;;;;4.87;1.73;;;17.80;93.60;;;;;;6119910;23;20421;-85
2021/09/30 11:16:52;;;;;;;6.57;1.83;;;17.70;93.80;;;;;;6120119;23;20525;-86
2021/09/30 11:19:33;;;;;;;4.78;1.80;;;17.50;94.20;;;;;;6119612;23;20462;-85
2021/09/30 11:22:05;;;;;;;10.55;2.83;;;17.40;94.70;;;;;;6116336;23;20263;-86
2021/09/30 11:24:34;;;;;;;3.55;1.75;;;17.10;94.60;;;;;;6115056;23;20157;-86
2021/09/30 11:27:13;;;;;;;7.15;1.70;;;16.90;94.00;;;;;;6116503;23;20211;-87
2021/09/30 11:29:41;;;;;;;4.72;1.65;;;16.70;94.10;;;;;;6115723;23;20248;-86
2021/09/30 11:32:25;;;;;;;8.93;2.73;;;16.60;94.20;;;;;;6114561;23;20204;-86
2021/09/30 11:34:56;;;;;;;8.93;3.22;;;16.50;94.70;;;;;;6115464;23;20516;-86
2021/09/30 11:37:28;;;;;;;13.27;3.00;;;16.40;94.90;;;;;;6112882;23;20272;-86
2021/09/30 11:39:58;;;;;;;6.25;2.08;;;16.40;95.30;;;;;;6113800;23;20182;-86
2021/09/30 11:42:33;;;;;;;2.88;1.40;;;16.40;94.90;;;;;;6112749;23;20555;-86
2021/09/30 11:45:03;;;;;;;10.02;2.10;;;16.50;94.90;;;;;;6111435;23;20168;-86
2021/09/30 11:47:32;;;;;;;3.85;1.98;;;16.40;95.30;;;;;;6112315;23;20195;-85
2021/09/30 11:50:01;;;;;;;5.25;1.20;;;16.30;95.40;;;;;;6111998;23;20188;-86
2021/09/30 11:52:30;;;;;;;4.72;1.40;;;16.50;95.40;;;;;;6111467;23;20195;-85
2021/09/30 11:55:14;;;;;;;6.50;2.20;;;16.70;94.90;;;;;;6109652;23;20198;-86
2021/09/30 11:57:52;;;;;;;4.65;1.23;;;16.60;94.80;;;;;;6110404;23;20256;-85
2021/09/30 12:00:20;;;;;;;4.82;1.80;;;16.50;95.30;;;;;;6109866;23;20179;-86
2021/09/30 12:02:59;;;;;;;5.88;2.35;;;16.30;95.80;;;;;;6110700;23;20191;-85
2021/09/30 12:05:30;;;;;;;4.70;1.70;;;16.10;96.40;;;;;;6108984;23;20179;-85
2021/09/30 12:08:00;;;;;;;5.05;2.05;;;16.30;97.10;;;;;;6109658;23;20213;-85
2021/09/30 12:10:28;;;;;;;5.90;1.80;;;16.30;96.70;;;;;;6109472;23;20215;-86
2021/09/30 12:13:11;;;;;;;5.00;1.50;;;16.40;97.20;;;;;;6108349;23;20192;-86
2021/09/30 12:15:38;;;;;;;5.10;1.75;;;16.20;96.50;;;;;;6109234;23;20245;-86
2021/09/30 12:18:16;;;;;;;4.47;1.67;;;16.30;96.80;;;;;;6110296;23;20204;-86
2021/09/30 12:20:52;;;;;;;8.55;2.13;;;16.20;95.80;;;;;;6113070;23;20236;-85
2021/09/30 12:23:21;;;;;;;4.85;1.80;;;16.50;95.90;;;;;;6122915;23;20158;-86
2021/09/30 12:25:49;;;;;;;4.72;1.80;;;16.80;94.80;;;;;;6123984;23;20229;-86
2021/09/30 12:28:17;;;;;;;3.37;1.50;;;17.20;94.20;;;;;;6123966;23;20194;-85
2021/09/30 12:30:44;;;;;;;5.80;2.23;;;17.40;93.70;;;;;;6123468;23;20465;-86
2021/09/30 12:33:12;;;;;;;5.33;1.53;;;17.40;93.30;;;;;;6123236;23;20413;-85
2021/09/30 12:35:41;;;;;;;6.73;1.67;;;17.50;93.30;;;;;;6123184;23;20499;-86
2021/09/30 12:38:12;;;;;;;9.17;1.67;;;17.50;93.40;;;;;;6123337;23;20469;-86
2021/09/30 12:40:44;;;;;;;5.87;2.53;;;17.30;92.60;;;;;;6123099;23;20389;-86
2021/09/30 12:43:13;;;;;;;5.10;1.65;;;17.20;92.90;;;;;;6110238;23;20427;-85
2021/09/30 12:45:42;;;;;;;5.43;1.58;;;17.00;92.70;;;;;;6108817;23;20260;-85
2021/09/30 12:48:11;;;;;;;6.57;2.10;;;16.90;93.30;;;;;;6111657;23;20750;-85
2021/09/30 12:50:47;;;;;;;5.97;1.30;;;16.90;93.60;;;;;;6108912;23;20185;-85
2021/09/30 12:53:18;;;;;;;3.40;1.50;;;17.10;93.90;;;;;;6109438;23;20406;-85
2021/09/30 12:55:47;;;;;;;5.77;2.10;;;17.30;93.90;;;;;;6109749;23;20430;-87
2021/09/30 12:58:28;;;;;;;3.60;1.25;;;17.20;92.60;;;;;;6107384;23;20529;-86
2021/09/30 13:00:57;;;;;;;7.07;1.77;;;17.20;93.00;;;;;;6107891;23;20177;-85
2021/09/30 13:03:25;;;;;;;5.90;1.67;;;17.30;92.80;;;;;;6111813;23;20428;-87
2021/09/30 13:05:53;;;;;;;6.00;1.70;;;17.30;92.90;;;;;;6118179;23;20469;-85
2021/09/30 13:08:42;;;;;;;5.63;1.67;;;17.20;92.70;;;;;;6118502;23;20430;-85
2021/09/30 13:11:29;;;;;;;6.97;1.87;;;17.30;93.30;;;;;;6118999;23;20401;-86
2021/09/30 13:14:19;;;;;;;11.13;2.00;;;17.30;92.20;;;;;;6118304;23;20405;-86
2021/09/30 13:16:49;;;;;;;5.20;1.38;;;17.30;90.60;;;;;;6119839;23;20505;-87
2021/09/30 13:19:17;;;;;;;3.17;1.40;;;17.20;91.00;;;;;;6119599;23;20230;-86
2021/09/30 13:22:03;;;;;;;2.95;1.45;;;17.10;90.50;;;;;;6117396;23;20417;-86
2021/09/30 13:24:34;;;;;;;3.50;2.20;;;17.00;91.00;;;;;;6118808;23;20176;-86
2021/09/30 13:27:04;;;;;;;5.57;2.13;;;16.90;91.50;;;;;;6119249;23;20394;-85
2021/09/30 13:29:32;;;;;;;4.83;1.17;;;16.90;91.20;;;;;;6118689;23;20433;-85
2021/09/30 13:31:59;;;;;;;2.97;1.42;;;16.90;91.20;;;;;;6110741;23;20478;-85
2021/09/30 13:34:27;;;;;;;6.53;1.35;;;16.90;91.50;;;;;;6109899;23;20216;-85
2021/09/30 13:36:54;;;;;;;3.20;1.50;;;16.90;91.60;;;;;;6110470;23;20660;-85
2021/09/30 13:39:21;;;;;;;4.10;1.40;;;17.00;91.70;;;;;;6109524;23;20413;-86
2021/09/30 13:41:48;;;;;;;5.80;2.08;;;17.00;91.60;;;;;;6110762;23;20900;-85
2021/09/30 13:44:17;;;;;;;4.38;1.42;;;16.90;91.90;;;;;;6109569;23;20180;-86
2021/09/30 13:46:44;;;;;;;6.32;1.85;;;16.50;92.40;;;;;;6109273;23;20181;-86
2021/09/30 13:49:11;;;;;;;4.03;1.73;;;16.60;93.00;;;;;;6110511;23;20173;-85
2021/09/30 13:51:38;;;;;;;6.15;1.30;;;16.60;93.10;;;;;;6109916;23;20458;-86
2021/09/30 13:54:06;;;;;;;3.17;1.40;;;16.70;92.90;;;;;;6109344;23;20181;-85
2021/09/30 13:56:33;;;;;;;3.35;1.00;;;16.70;92.40;;;;;;6109871;23;20200;-86
2021/09/30 13:59:01;;;;;;;4.00;1.50;;;16.50;92.40;;;;;;6108974;23;20196;-86
2021/09/30 14:01:29;;;;;;;7.60;2.23;;;16.50;92.80;;;;;;6111071;23;20179;-86
2021/09/30 14:03:57;;;;;;;5.82;2.42;;;16.40;92.90;;;;;;6109855;23;20505;-85
2021/09/30 14:06:24;;;;;;;2.67;1.25;;;16.20;93.10;;;;;;6111798;23;20197;-85
2021/09/30 14:08:53;;;;;;;9.40;1.70;;;16.20;93.20;;;;;;6119600;23;20204;-85
2021/09/30 14:11:23;;;;;;;6.30;2.72;;;16.00;93.50;;;;;;6114164;23;20184;-86
2021/09/30 14:13:52;;;;;;;6.15;1.88;;;15.90;94.10;;;;;;6110213;23;20164;-85
2021/09/30 14:16:19;;;;;;;5.07;1.83;;;16.00;94.70;;;;;;6108569;23;20201;-86
2021/09/30 14:18:48;;;;;;;5.95;2.28;;;16.00;95.00;;;;;;6108627;23;20551;-87
2021/09/30 14:21:16;;;;;;;3.95;1.55;;;16.10;95.00;;;;;;6107295;23;20185;-85
2021/09/30 14:23:44;;;;;;;5.65;1.95;;;16.20;95.20;;;;;;6112109;23;20175;-86
2021/09/30 14:26:11;;;;;;;3.92;1.73;;;16.30;95.70;;;;;;6117191;23;20181;-83
2021/09/30 14:28:38;;;;;;;6.20;1.77;;;16.30;95.10;;;;;;6115426;23;20235;-84
2021/09/30 14:31:06;;;;;;;10.77;1.50;;;16.40;95.00;;;;;;6114827;23;20211;-84
2021/09/30 14:33:34;;;;;;;4.95;1.90;;;16.40;95.00;;;;;;6112763;23;20184;-82
2021/09/30 14:36:04;;;;;;;6.38;1.80;;;16.40;95.20;;;;;;6108050;23;20188;-85
2021/09/30 14:38:31;;;;;;;6.82;2.25;;;16.50;96.20;;;;;;6107011;23;20725;-84
2021/09/30 14:40:59;;;;;;;5.85;2.55;;;16.80;94.40;;;;;;6110211;23;20186;-84
2021/09/30 14:43:31;;;;;;;6.15;1.45;;;16.90;92.90;;;;;;6105218;23;20185;-86
2021/09/30 14:45:59;;;;;;;4.50;2.10;;;16.80;92.60;;;;;;6104471;23;20185;-86
2021/09/30 14:48:26;;;;;;;4.32;1.70;;;16.70;92.10;;;;;;6106690;23;20201;-86
2021/09/30 14:50:53;;;;;;;5.75;2.17;;;16.80;92.50;;;;;;6108308;23;20191;-85
2021/09/30 14:53:25;;;;;;;2.55;1.25;;;16.80;92.40;;;;;;6106737;23;20184;-85
2021/09/30 14:55:52;;;;;;;4.72;1.65;;;16.70;92.10;;;;;;6103870;23;20189;-86
2021/09/30 14:58:19;;;;;;;7.80;1.73;;;16.50;92.70;;;;;;6104418;23;20193;-85
2021/09/30 15:00:49;;;;;;;2.72;1.05;;;16.50;93.20;;;;;;6105869;23;20420;-89
2021/09/30 15:03:16;;;;;;;3.20;1.80;;;16.40;92.40;;;;;;6105900;23;20220;-85
2021/09/30 15:05:43;;;;;;;3.42;1.10;;;16.20;92.00;;;;;;6105506;23;20191;-85
2021/09/30 15:08:11;;;;;;;4.15;2.40;;;16.10;92.30;;;;;;6107822;23;20259;-84
2021/09/30 15:10:40;;;;;;;4.35;2.17;;;16.00;92.30;;;;;;6131389;23;20212;-70
2021/09/30 15:13:08;;;;;;;4.88;1.38;;;16.00;92.50;;;;;;6183538;23;20232;-70
2021/09/30 15:15:36;;;;;;;2.63;2.17;;;15.90;92.30;;;;;;6181225;23;20162;-69
2021/09/30 15:18:06;;;;;;;3.63;1.70;;;15.90;92.30;;;;;;6181504;23;20193;-69
2021/09/30 15:23:20;;;;;;;4.30;1.52;;;15.90;93.50;;;;;;6182061;23;20655;-69
2021/09/30 15:25:49;;;;;;;4.63;1.75;;;15.90;94.00;;;;;;6180408;23;20245;-70
2021/09/30 15:28:18;;;;;;;3.85;1.67;;;15.90;94.40;;;;;;6181630;23;20162;-68
2021/09/30 15:30:46;;;;;;;5.85;2.03;;;15.90;94.30;;;;;;6181425;23;20248;-72
2021/09/30 15:33:15;;;;;;;8.98;2.45;;;15.80;94.40;;;;;;6181666;23;20275;-68
2021/09/30 15:35:43;;;;;;;10.32;3.80;;;15.70;95.10;;;;;;6181213;23;20228;-70
2021/09/30 15:38:11;;;;;;;7.60;2.05;;;15.70;95.70;;;;;;6181193;23;20240;-70
2021/09/30 15:40:39;;;;;;;3.60;1.50;;;15.70;95.30;;;;;;6181270;23;20166;-70
2021/09/30 15:43:08;;;;;;;7.95;1.70;;;15.70;95.90;;;;;;6182085;23;20204;-70